sensor_id;sensor_type;location;lat;lon;timestamp;P1;durP1;ratioP1;P2;durP2;ratioP2
67715;SDS011;54508;43.238;25.306;2023-08-21T00:01:27;1.60;;;1.50;;
67715;SDS011;54508;43.238;25.306;2023-08-21T00:03:53;2.03;;;1.60;;
67715;SDS011;54508;43.238;25.306;2023-08-21T00:06:18;2.25;;;1.95;;
67715;SDS011;54508;43.238;25.306;2023-08-21T00:08:44;2.00;;;1.67;;
67715;SDS011;54508;43.238;25.306;2023-08-21T00:11:09;2.40;;;1.90;;
67715;SDS011;54508;43.238;25.306;2023-08-21T00:13:34;1.90;;;1.80;;
67715;SDS011;54508;43.238;25.306;2023-08-21T00:16:00;1.93;;;1.70;;
67715;SDS011;54508;43.238;25.306;2023-08-21T00:18:25;1.80;;;1.60;;
67715;SDS011;54508;43.238;25.306;2023-08-21T00:20:51;2.80;;;1.97;;
67715;SDS011;54508;43.238;25.306;2023-08-21T00:23:16;2.00;;;1.80;;
67715;SDS011;54508;43.238;25.306;2023-08-21T00:25:45;1.70;;;1.60;;
67715;SDS011;54508;43.238;25.306;2023-08-21T00:28:11;1.67;;;1.58;;
67715;SDS011;54508;43.238;25.306;2023-08-21T00:30:37;1.70;;;1.60;;
67715;SDS011;54508;43.238;25.306;2023-08-21T00:33:02;2.00;;;1.80;;
67715;SDS011;54508;43.238;25.306;2023-08-21T00:35:28;1.60;;;1.50;;
67715;SDS011;54508;43.238;25.306;2023-08-21T00:37:53;2.00;;;1.80;;
67715;SDS011;54508;43.238;25.306;2023-08-21T00:40:19;1.92;;;1.73;;
67715;SDS011;54508;43.238;25.306;2023-08-21T00:42:44;1.83;;;1.63;;
67715;SDS011;54508;43.238;25.306;2023-08-21T00:45:09;2.13;;;1.73;;
67715;SDS011;54508;43.238;25.306;2023-08-21T00:47:36;1.70;;;1.60;;
67715;SDS011;54508;43.238;25.306;2023-08-21T00:50:01;1.80;;;1.70;;
67715;SDS011;54508;43.238;25.306;2023-08-21T00:52:27;1.75;;;1.65;;
67715;SDS011;54508;43.238;25.306;2023-08-21T00:54:53;2.08;;;1.88;;
67715;SDS011;54508;43.238;25.306;2023-08-21T00:57:19;1.70;;;1.60;;
67715;SDS011;54508;43.238;25.306;2023-08-21T00:59:45;2.20;;;2.00;;
67715;SDS011;54508;43.238;25.306;2023-08-21T01:02:12;2.22;;;2.03;;
67715;SDS011;54508;43.238;25.306;2023-08-21T01:04:37;2.00;;;1.80;;
67715;SDS011;54508;43.238;25.306;2023-08-21T01:07:03;1.77;;;1.67;;
67715;SDS011;54508;43.238;25.306;2023-08-21T01:09:36;1.75;;;1.65;;
67715;SDS011;54508;43.238;25.306;2023-08-21T01:17:24;1.88;;;1.73;;
67715;SDS011;54508;43.238;25.306;2023-08-21T01:19:50;2.08;;;1.98;;
67715;SDS011;54508;43.238;25.306;2023-08-21T01:22:17;1.83;;;1.70;;
67715;SDS011;54508;43.238;25.306;2023-08-21T01:24:42;2.10;;;1.90;;
67715;SDS011;54508;43.238;25.306;2023-08-21T01:27:08;2.37;;;2.17;;
67715;SDS011;54508;43.238;25.306;2023-08-21T01:29:34;1.90;;;1.77;;
67715;SDS011;54508;43.238;25.306;2023-08-21T01:34:49;2.27;;;2.07;;
67715;SDS011;54508;43.238;25.306;2023-08-21T01:37:17;2.10;;;1.90;;
67715;SDS011;54508;43.238;25.306;2023-08-21T01:39:42;2.20;;;2.00;;
67715;SDS011;54508;43.238;25.306;2023-08-21T01:42:08;4.57;;;2.03;;
67715;SDS011;54508;43.238;25.306;2023-08-21T01:44:33;2.45;;;1.90;;
67715;SDS011;54508;43.238;25.306;2023-08-21T01:46:59;1.98;;;1.77;;
67715;SDS011;54508;43.238;25.306;2023-08-21T01:49:24;2.10;;;1.90;;
67715;SDS011;54508;43.238;25.306;2023-08-21T01:51:50;1.73;;;1.63;;
67715;SDS011;54508;43.238;25.306;2023-08-21T01:54:15;2.80;;;1.90;;
67715;SDS011;54508;43.238;25.306;2023-08-21T01:56:40;1.83;;;1.73;;
67715;SDS011;54508;43.238;25.306;2023-08-21T01:59:06;2.00;;;1.80;;
67715;SDS011;54508;43.238;25.306;2023-08-21T02:01:32;1.70;;;1.60;;
67715;SDS011;54508;43.238;25.306;2023-08-21T02:03:57;2.30;;;2.10;;
67715;SDS011;54508;43.238;25.306;2023-08-21T02:06:23;1.80;;;1.70;;
67715;SDS011;54508;43.238;25.306;2023-08-21T02:08:48;2.10;;;1.67;;
67715;SDS011;54508;43.238;25.306;2023-08-21T02:11:14;1.85;;;1.67;;
67715;SDS011;54508;43.238;25.306;2023-08-21T02:13:40;1.90;;;1.80;;
67715;SDS011;54508;43.238;25.306;2023-08-21T02:16:05;2.10;;;1.90;;
67715;SDS011;54508;43.238;25.306;2023-08-21T02:18:31;2.15;;;1.95;;
67715;SDS011;54508;43.238;25.306;2023-08-21T02:20:56;1.70;;;1.60;;
67715;SDS011;54508;43.238;25.306;2023-08-21T02:23:22;2.03;;;1.90;;
67715;SDS011;54508;43.238;25.306;2023-08-21T02:25:49;1.88;;;1.77;;
67715;SDS011;54508;43.238;25.306;2023-08-21T02:28:14;2.00;;;1.80;;
67715;SDS011;54508;43.238;25.306;2023-08-21T02:30:43;1.90;;;1.70;;
67715;SDS011;54508;43.238;25.306;2023-08-21T02:33:08;1.77;;;1.67;;
67715;SDS011;54508;43.238;25.306;2023-08-21T02:35:34;2.25;;;1.90;;
67715;SDS011;54508;43.238;25.306;2023-08-21T02:37:59;2.07;;;1.87;;
67715;SDS011;54508;43.238;25.306;2023-08-21T02:40:25;1.70;;;1.58;;
67715;SDS011;54508;43.238;25.306;2023-08-21T02:42:50;2.43;;;1.90;;
67715;SDS011;54508;43.238;25.306;2023-08-21T02:45:16;1.93;;;1.83;;
67715;SDS011;54508;43.238;25.306;2023-08-21T02:47:41;1.87;;;1.70;;
67715;SDS011;54508;43.238;25.306;2023-08-21T02:50:08;2.22;;;1.50;;
67715;SDS011;54508;43.238;25.306;2023-08-21T02:52:34;2.28;;;2.08;;
67715;SDS011;54508;43.238;25.306;2023-08-21T02:55:00;1.83;;;1.73;;
67715;SDS011;54508;43.238;25.306;2023-08-21T02:57:26;2.40;;;1.98;;
67715;SDS011;54508;43.238;25.306;2023-08-21T02:59:52;1.70;;;1.60;;
67715;SDS011;54508;43.238;25.306;2023-08-21T03:02:17;2.80;;;1.57;;
67715;SDS011;54508;43.238;25.306;2023-08-21T03:04:43;2.22;;;1.95;;
67715;SDS011;54508;43.238;25.306;2023-08-21T03:07:09;2.00;;;1.70;;
67715;SDS011;54508;43.238;25.306;2023-08-21T03:09:35;1.70;;;1.60;;
67715;SDS011;54508;43.238;25.306;2023-08-21T03:12:01;1.65;;;1.50;;
67715;SDS011;54508;43.238;25.306;2023-08-21T03:14:27;2.10;;;1.90;;
67715;SDS011;54508;43.238;25.306;2023-08-21T03:16:53;2.07;;;1.90;;
67715;SDS011;54508;43.238;25.306;2023-08-21T03:19:18;2.40;;;1.80;;
67715;SDS011;54508;43.238;25.306;2023-08-21T03:21:43;2.40;;;1.63;;
67715;SDS011;54508;43.238;25.306;2023-08-21T03:24:09;1.80;;;1.70;;
67715;SDS011;54508;43.238;25.306;2023-08-21T03:26:34;2.20;;;1.63;;
67715;SDS011;54508;43.238;25.306;2023-08-21T03:29:00;2.10;;;1.90;;
67715;SDS011;54508;43.238;25.306;2023-08-21T03:31:25;2.00;;;1.63;;
67715;SDS011;54508;43.238;25.306;2023-08-21T03:33:51;1.70;;;1.60;;
67715;SDS011;54508;43.238;25.306;2023-08-21T03:36:16;2.17;;;1.80;;
67715;SDS011;54508;43.238;25.306;2023-08-21T03:38:42;3.10;;;1.70;;
67715;SDS011;54508;43.238;25.306;2023-08-21T03:41:07;2.10;;;1.90;;
67715;SDS011;54508;43.238;25.306;2023-08-21T03:43:33;2.22;;;2.03;;
67715;SDS011;54508;43.238;25.306;2023-08-21T03:45:58;2.30;;;2.07;;
67715;SDS011;54508;43.238;25.306;2023-08-21T03:48:24;2.90;;;2.47;;
67715;SDS011;54508;43.238;25.306;2023-08-21T03:50:49;2.80;;;2.20;;
67715;SDS011;54508;43.238;25.306;2023-08-21T03:53:15;4.07;;;2.30;;
67715;SDS011;54508;43.238;25.306;2023-08-21T03:55:40;2.57;;;2.30;;
67715;SDS011;54508;43.238;25.306;2023-08-21T03:58:06;4.18;;;2.38;;
67715;SDS011;54508;43.238;25.306;2023-08-21T04:00:31;2.30;;;1.93;;
67715;SDS011;54508;43.238;25.306;2023-08-21T04:02:57;2.57;;;2.20;;
67715;SDS011;54508;43.238;25.306;2023-08-21T04:05:23;2.55;;;2.20;;
67715;SDS011;54508;43.238;25.306;2023-08-21T04:07:48;2.30;;;1.87;;
67715;SDS011;54508;43.238;25.306;2023-08-21T04:10:14;3.50;;;2.00;;
67715;SDS011;54508;43.238;25.306;2023-08-21T04:12:39;2.30;;;2.10;;
67715;SDS011;54508;43.238;25.306;2023-08-21T04:15:05;2.33;;;1.90;;
67715;SDS011;54508;43.238;25.306;2023-08-21T04:17:31;2.55;;;2.25;;
67715;SDS011;54508;43.238;25.306;2023-08-21T04:19:56;2.92;;;2.05;;
67715;SDS011;54508;43.238;25.306;2023-08-21T04:22:22;3.27;;;2.27;;
67715;SDS011;54508;43.238;25.306;2023-08-21T04:24:48;3.55;;;2.30;;
67715;SDS011;54508;43.238;25.306;2023-08-21T04:27:13;2.60;;;2.23;;
67715;SDS011;54508;43.238;25.306;2023-08-21T04:29:39;2.07;;;1.90;;
67715;SDS011;54508;43.238;25.306;2023-08-21T04:32:05;2.20;;;2.00;;
67715;SDS011;54508;43.238;25.306;2023-08-21T04:34:34;3.00;;;2.38;;
67715;SDS011;54508;43.238;25.306;2023-08-21T04:36:59;3.25;;;2.40;;
67715;SDS011;54508;43.238;25.306;2023-08-21T04:39:25;5.30;;;2.33;;
67715;SDS011;54508;43.238;25.306;2023-08-21T04:41:50;2.13;;;1.92;;
67715;SDS011;54508;43.238;25.306;2023-08-21T04:44:16;2.97;;;2.23;;
67715;SDS011;54508;43.238;25.306;2023-08-21T04:46:42;2.60;;;1.95;;
67715;SDS011;54508;43.238;25.306;2023-08-21T04:49:07;2.93;;;2.37;;
67715;SDS011;54508;43.238;25.306;2023-08-21T04:51:33;2.50;;;2.30;;
67715;SDS011;54508;43.238;25.306;2023-08-21T04:53:59;2.60;;;2.00;;
67715;SDS011;54508;43.238;25.306;2023-08-21T04:56:25;2.97;;;2.45;;
67715;SDS011;54508;43.238;25.306;2023-08-21T04:58:51;8.00;;;4.07;;
67715;SDS011;54508;43.238;25.306;2023-08-21T05:01:17;7.18;;;5.00;;
67715;SDS011;54508;43.238;25.306;2023-08-21T05:03:43;12.07;;;5.63;;
67715;SDS011;54508;43.238;25.306;2023-08-21T05:06:08;9.55;;;6.20;;
67715;SDS011;54508;43.238;25.306;2023-08-21T05:08:34;10.70;;;5.90;;
67715;SDS011;54508;43.238;25.306;2023-08-21T05:10:59;11.23;;;5.70;;
67715;SDS011;54508;43.238;25.306;2023-08-21T05:13:25;13.05;;;5.70;;
67715;SDS011;54508;43.238;25.306;2023-08-21T05:15:54;11.20;;;6.20;;
67715;SDS011;54508;43.238;25.306;2023-08-21T05:18:20;11.13;;;7.00;;
67715;SDS011;54508;43.238;25.306;2023-08-21T05:20:47;7.88;;;6.35;;
67715;SDS011;54508;43.238;25.306;2023-08-21T05:23:13;7.72;;;6.03;;
67715;SDS011;54508;43.238;25.306;2023-08-21T05:25:39;7.03;;;6.33;;
67715;SDS011;54508;43.238;25.306;2023-08-21T05:28:05;7.28;;;6.10;;
67715;SDS011;54508;43.238;25.306;2023-08-21T05:30:31;13.03;;;6.63;;
67715;SDS011;54508;43.238;25.306;2023-08-21T05:32:57;10.38;;;7.00;;
67715;SDS011;54508;43.238;25.306;2023-08-21T05:35:22;8.90;;;6.40;;
67715;SDS011;54508;43.238;25.306;2023-08-21T05:37:48;11.53;;;6.10;;
67715;SDS011;54508;43.238;25.306;2023-08-21T05:40:13;6.90;;;5.75;;
67715;SDS011;54508;43.238;25.306;2023-08-21T05:42:39;7.30;;;6.30;;
67715;SDS011;54508;43.238;25.306;2023-08-21T05:45:05;7.10;;;5.10;;
67715;SDS011;54508;43.238;25.306;2023-08-21T05:47:31;9.93;;;5.80;;
67715;SDS011;54508;43.238;25.306;2023-08-21T05:49:56;13.35;;;5.80;;
67715;SDS011;54508;43.238;25.306;2023-08-21T05:52:22;13.10;;;5.73;;
67715;SDS011;54508;43.238;25.306;2023-08-21T05:54:48;8.15;;;6.10;;
67715;SDS011;54508;43.238;25.306;2023-08-21T05:57:13;20.23;;;12.07;;
67715;SDS011;54508;43.238;25.306;2023-08-21T05:59:43;20.05;;;17.70;;
67715;SDS011;54508;43.238;25.306;2023-08-21T06:02:12;20.85;;;17.00;;
67715;SDS011;54508;43.238;25.306;2023-08-21T06:04:39;19.45;;;14.75;;
67715;SDS011;54508;43.238;25.306;2023-08-21T06:07:05;18.80;;;14.75;;
67715;SDS011;54508;43.238;25.306;2023-08-21T06:09:31;16.27;;;13.43;;
67715;SDS011;54508;43.238;25.306;2023-08-21T06:11:59;15.93;;;11.10;;
67715;SDS011;54508;43.238;25.306;2023-08-21T06:14:26;11.27;;;10.07;;
67715;SDS011;54508;43.238;25.306;2023-08-21T06:17:01;11.15;;;9.45;;
67715;SDS011;54508;43.238;25.306;2023-08-21T06:19:28;13.15;;;10.00;;
67715;SDS011;54508;43.238;25.306;2023-08-21T06:21:54;9.73;;;8.73;;
67715;SDS011;54508;43.238;25.306;2023-08-21T06:24:23;10.85;;;8.25;;
67715;SDS011;54508;43.238;25.306;2023-08-21T06:26:50;11.70;;;7.83;;
67715;SDS011;54508;43.238;25.306;2023-08-21T06:29:16;10.13;;;7.63;;
67715;SDS011;54508;43.238;25.306;2023-08-21T06:31:42;11.13;;;6.83;;
67715;SDS011;54508;43.238;25.306;2023-08-21T06:34:07;7.65;;;6.35;;
67715;SDS011;54508;43.238;25.306;2023-08-21T06:36:33;10.50;;;5.97;;
67715;SDS011;54508;43.238;25.306;2023-08-21T06:38:58;8.33;;;5.83;;
67715;SDS011;54508;43.238;25.306;2023-08-21T06:41:24;10.73;;;5.97;;
67715;SDS011;54508;43.238;25.306;2023-08-21T06:43:50;8.93;;;6.22;;
67715;SDS011;54508;43.238;25.306;2023-08-21T06:46:16;8.63;;;5.80;;
67715;SDS011;54508;43.238;25.306;2023-08-21T06:48:41;9.70;;;6.50;;
67715;SDS011;54508;43.238;25.306;2023-08-21T06:51:08;7.10;;;5.57;;
67715;SDS011;54508;43.238;25.306;2023-08-21T06:53:34;8.10;;;5.67;;
67715;SDS011;54508;43.238;25.306;2023-08-21T06:55:59;6.03;;;5.40;;
67715;SDS011;54508;43.238;25.306;2023-08-21T06:58:25;12.03;;;6.47;;
67715;SDS011;54508;43.238;25.306;2023-08-21T07:00:53;10.95;;;6.70;;
67715;SDS011;54508;43.238;25.306;2023-08-21T07:03:18;9.30;;;6.87;;
67715;SDS011;54508;43.238;25.306;2023-08-21T07:05:46;7.30;;;6.50;;
67715;SDS011;54508;43.238;25.306;2023-08-21T07:08:13;9.30;;;6.03;;
67715;SDS011;54508;43.238;25.306;2023-08-21T07:10:38;11.98;;;6.38;;
67715;SDS011;54508;43.238;25.306;2023-08-21T07:13:04;10.57;;;5.77;;
67715;SDS011;54508;43.238;25.306;2023-08-21T07:15:29;8.07;;;5.30;;
67715;SDS011;54508;43.238;25.306;2023-08-21T07:17:55;14.15;;;5.47;;
67715;SDS011;54508;43.238;25.306;2023-08-21T07:20:21;11.23;;;5.30;;
67715;SDS011;54508;43.238;25.306;2023-08-21T07:22:47;9.88;;;5.18;;
67715;SDS011;54508;43.238;25.306;2023-08-21T07:25:12;8.87;;;5.47;;
67715;SDS011;54508;43.238;25.306;2023-08-21T07:27:38;6.47;;;4.63;;
67715;SDS011;54508;43.238;25.306;2023-08-21T07:30:04;10.43;;;3.90;;
67715;SDS011;54508;43.238;25.306;2023-08-21T07:32:30;6.85;;;4.55;;
67715;SDS011;54508;43.238;25.306;2023-08-21T07:34:56;4.37;;;3.90;;
67715;SDS011;54508;43.238;25.306;2023-08-21T07:37:21;6.73;;;4.03;;
67715;SDS011;54508;43.238;25.306;2023-08-21T07:39:47;7.10;;;3.88;;
67715;SDS011;54508;43.238;25.306;2023-08-21T07:42:12;6.80;;;4.20;;
67715;SDS011;54508;43.238;25.306;2023-08-21T07:44:41;5.47;;;3.60;;
67715;SDS011;54508;43.238;25.306;2023-08-21T07:47:06;5.80;;;4.28;;
67715;SDS011;54508;43.238;25.306;2023-08-21T07:49:32;4.77;;;3.97;;
67715;SDS011;54508;43.238;25.306;2023-08-21T07:51:58;7.78;;;4.45;;
67715;SDS011;54508;43.238;25.306;2023-08-21T07:54:23;9.73;;;4.87;;
67715;SDS011;54508;43.238;25.306;2023-08-21T07:56:49;8.17;;;4.70;;
67715;SDS011;54508;43.238;25.306;2023-08-21T07:59:15;14.38;;;4.93;;
67715;SDS011;54508;43.238;25.306;2023-08-21T08:01:41;13.40;;;5.70;;
67715;SDS011;54508;43.238;25.306;2023-08-21T08:04:06;4.57;;;4.10;;
67715;SDS011;54508;43.238;25.306;2023-08-21T08:06:32;7.63;;;4.20;;
67715;SDS011;54508;43.238;25.306;2023-08-21T08:08:57;10.00;;;4.38;;
67715;SDS011;54508;43.238;25.306;2023-08-21T08:11:23;7.53;;;4.43;;
67715;SDS011;54508;43.238;25.306;2023-08-21T08:13:49;9.82;;;3.90;;
67715;SDS011;54508;43.238;25.306;2023-08-21T08:16:15;11.60;;;4.77;;
67715;SDS011;54508;43.238;25.306;2023-08-21T08:18:41;6.13;;;4.47;;
67715;SDS011;54508;43.238;25.306;2023-08-21T08:21:07;8.57;;;4.72;;
67715;SDS011;54508;43.238;25.306;2023-08-21T08:23:32;10.97;;;4.87;;
67715;SDS011;54508;43.238;25.306;2023-08-21T08:25:58;10.33;;;5.30;;
67715;SDS011;54508;43.238;25.306;2023-08-21T08:28:23;9.33;;;5.03;;
67715;SDS011;54508;43.238;25.306;2023-08-21T08:30:49;5.85;;;4.70;;
67715;SDS011;54508;43.238;25.306;2023-08-21T08:33:15;8.50;;;5.63;;
67715;SDS011;54508;43.238;25.306;2023-08-21T08:35:41;10.43;;;6.95;;
67715;SDS011;54508;43.238;25.306;2023-08-21T08:38:06;10.32;;;6.70;;
67715;SDS011;54508;43.238;25.306;2023-08-21T08:40:32;13.87;;;6.93;;
67715;SDS011;54508;43.238;25.306;2023-08-21T08:42:58;16.80;;;7.20;;
67715;SDS011;54508;43.238;25.306;2023-08-21T08:45:28;39.13;;;31.77;;
67715;SDS011;54508;43.238;25.306;2023-08-21T08:47:58;34.78;;;24.33;;
67715;SDS011;54508;43.238;25.306;2023-08-21T08:50:25;25.65;;;22.40;;
67715;SDS011;54508;43.238;25.306;2023-08-21T08:52:56;21.35;;;17.83;;
67715;SDS011;54508;43.238;25.306;2023-08-21T08:55:22;19.83;;;17.33;;
67715;SDS011;54508;43.238;25.306;2023-08-21T08:57:48;19.77;;;16.20;;
67715;SDS011;54508;43.238;25.306;2023-08-21T09:00:14;16.35;;;14.10;;
67715;SDS011;54508;43.238;25.306;2023-08-21T09:02:40;18.38;;;16.35;;
67715;SDS011;54508;43.238;25.306;2023-08-21T09:05:06;24.77;;;15.07;;
67715;SDS011;54508;43.238;25.306;2023-08-21T09:07:33;18.30;;;13.63;;
67715;SDS011;54508;43.238;25.306;2023-08-21T09:10:02;15.02;;;12.57;;
67715;SDS011;54508;43.238;25.306;2023-08-21T09:12:28;12.55;;;11.07;;
67715;SDS011;54508;43.238;25.306;2023-08-21T09:14:57;15.38;;;9.85;;
67715;SDS011;54508;43.238;25.306;2023-08-21T09:17:24;14.45;;;10.25;;
67715;SDS011;54508;43.238;25.306;2023-08-21T09:19:50;11.18;;;9.98;;
67715;SDS011;54508;43.238;25.306;2023-08-21T09:22:16;9.37;;;8.30;;
67715;SDS011;54508;43.238;25.306;2023-08-21T09:25:02;10.25;;;8.45;;
67715;SDS011;54508;43.238;25.306;2023-08-21T09:27:35;12.35;;;7.63;;
67715;SDS011;54508;43.238;25.306;2023-08-21T09:30:06;10.98;;;7.05;;
67715;SDS011;54508;43.238;25.306;2023-08-21T09:32:52;8.40;;;6.88;;
67715;SDS011;54508;43.238;25.306;2023-08-21T09:35:19;10.93;;;7.00;;
67715;SDS011;54508;43.238;25.306;2023-08-21T09:37:48;7.55;;;6.50;;
67715;SDS011;54508;43.238;25.306;2023-08-21T09:40:17;7.20;;;6.43;;
67715;SDS011;54508;43.238;25.306;2023-08-21T09:42:42;11.38;;;6.55;;
67715;SDS011;54508;43.238;25.306;2023-08-21T09:45:08;14.00;;;5.60;;
67715;SDS011;54508;43.238;25.306;2023-08-21T09:47:33;7.05;;;5.57;;
67715;SDS011;54508;43.238;25.306;2023-08-21T09:50:01;9.05;;;6.03;;
67715;SDS011;54508;43.238;25.306;2023-08-21T09:52:28;14.35;;;5.60;;
67715;SDS011;54508;43.238;25.306;2023-08-21T09:54:53;7.47;;;5.15;;
67715;SDS011;54508;43.238;25.306;2023-08-21T09:57:21;7.80;;;5.35;;
67715;SDS011;54508;43.238;25.306;2023-08-21T09:59:48;6.65;;;4.90;;
67715;SDS011;54508;43.238;25.306;2023-08-21T10:02:22;6.70;;;4.50;;
67715;SDS011;54508;43.238;25.306;2023-08-21T10:04:48;4.97;;;4.45;;
67715;SDS011;54508;43.238;25.306;2023-08-21T10:07:15;5.80;;;4.25;;
67715;SDS011;54508;43.238;25.306;2023-08-21T10:09:41;6.90;;;4.13;;
67715;SDS011;54508;43.238;25.306;2023-08-21T10:12:10;5.25;;;4.32;;
67715;SDS011;54508;43.238;25.306;2023-08-21T10:14:39;6.85;;;4.10;;
67715;SDS011;54508;43.238;25.306;2023-08-21T10:17:05;3.97;;;3.58;;
67715;SDS011;54508;43.238;25.306;2023-08-21T10:19:31;5.47;;;3.72;;
67715;SDS011;54508;43.238;25.306;2023-08-21T10:21:57;3.58;;;3.28;;
67715;SDS011;54508;43.238;25.306;2023-08-21T10:24:27;3.85;;;3.22;;
67715;SDS011;54508;43.238;25.306;2023-08-21T10:27:08;4.40;;;3.20;;
67715;SDS011;54508;43.238;25.306;2023-08-21T10:29:33;6.32;;;3.58;;
67715;SDS011;54508;43.238;25.306;2023-08-21T10:32:03;6.30;;;3.03;;
67715;SDS011;54508;43.238;25.306;2023-08-21T10:34:33;4.90;;;2.88;;
67715;SDS011;54508;43.238;25.306;2023-08-21T10:39:28;4.57;;;3.10;;
67715;SDS011;54508;43.238;25.306;2023-08-21T10:44:36;9.40;;;5.13;;
67715;SDS011;54508;43.238;25.306;2023-08-21T10:47:15;8.60;;;4.45;;
67715;SDS011;54508;43.238;25.306;2023-08-21T10:49:48;6.68;;;4.90;;
67715;SDS011;54508;43.238;25.306;2023-08-21T10:52:26;7.72;;;4.70;;
67715;SDS011;54508;43.238;25.306;2023-08-21T10:54:53;7.65;;;4.13;;
67715;SDS011;54508;43.238;25.306;2023-08-21T10:57:23;7.25;;;3.90;;
67715;SDS011;54508;43.238;25.306;2023-08-21T10:59:50;4.20;;;3.80;;
67715;SDS011;54508;43.238;25.306;2023-08-21T11:02:43;4.18;;;3.65;;
67715;SDS011;54508;43.238;25.306;2023-08-21T11:05:09;4.85;;;3.40;;
67715;SDS011;54508;43.238;25.306;2023-08-21T11:07:39;4.43;;;3.40;;
67715;SDS011;54508;43.238;25.306;2023-08-21T11:10:16;4.30;;;3.40;;
67715;SDS011;54508;43.238;25.306;2023-08-21T11:12:56;5.40;;;3.58;;
67715;SDS011;54508;43.238;25.306;2023-08-21T11:15:26;5.50;;;3.90;;
67715;SDS011;54508;43.238;25.306;2023-08-21T11:20:31;4.75;;;3.22;;
67715;SDS011;54508;43.238;25.306;2023-08-21T11:23:01;4.40;;;3.20;;
67715;SDS011;54508;43.238;25.306;2023-08-21T11:25:32;5.35;;;3.20;;
67715;SDS011;54508;43.238;25.306;2023-08-21T11:28:07;4.75;;;3.03;;
67715;SDS011;54508;43.238;25.306;2023-08-21T11:30:33;3.50;;;3.20;;
67715;SDS011;54508;43.238;25.306;2023-08-21T11:35:34;5.50;;;4.00;;
67715;SDS011;54508;43.238;25.306;2023-08-21T11:38:00;12.05;;;3.80;;
67715;SDS011;54508;43.238;25.306;2023-08-21T11:40:26;6.88;;;3.67;;
67715;SDS011;54508;43.238;25.306;2023-08-21T11:42:51;5.83;;;3.50;;
67715;SDS011;54508;43.238;25.306;2023-08-21T11:45:20;6.53;;;3.20;;
67715;SDS011;54508;43.238;25.306;2023-08-21T11:47:46;6.13;;;3.35;;
67715;SDS011;54508;43.238;25.306;2023-08-21T11:50:11;6.40;;;3.15;;
67715;SDS011;54508;43.238;25.306;2023-08-21T11:52:38;3.93;;;2.93;;
67715;SDS011;54508;43.238;25.306;2023-08-21T11:55:10;4.38;;;3.13;;
67715;SDS011;54508;43.238;25.306;2023-08-21T11:57:46;3.63;;;3.17;;
67715;SDS011;54508;43.238;25.306;2023-08-21T12:00:12;6.05;;;3.20;;
67715;SDS011;54508;43.238;25.306;2023-08-21T12:02:38;8.82;;;3.83;;
67715;SDS011;54508;43.238;25.306;2023-08-21T12:05:04;7.17;;;3.50;;
67715;SDS011;54508;43.238;25.306;2023-08-21T12:07:31;5.05;;;3.95;;
67715;SDS011;54508;43.238;25.306;2023-08-21T12:09:57;4.63;;;3.53;;
67715;SDS011;54508;43.238;25.306;2023-08-21T12:12:22;5.97;;;3.53;;
67715;SDS011;54508;43.238;25.306;2023-08-21T12:14:48;5.93;;;3.90;;
67715;SDS011;54508;43.238;25.306;2023-08-21T12:17:14;4.75;;;3.25;;
67715;SDS011;54508;43.238;25.306;2023-08-21T12:19:39;5.97;;;3.37;;
67715;SDS011;54508;43.238;25.306;2023-08-21T12:22:05;3.37;;;3.07;;
67715;SDS011;54508;43.238;25.306;2023-08-21T12:24:30;4.05;;;3.42;;
67715;SDS011;54508;43.238;25.306;2023-08-21T12:26:56;4.47;;;2.93;;
67715;SDS011;54508;43.238;25.306;2023-08-21T12:29:21;4.07;;;3.27;;
67715;SDS011;54508;43.238;25.306;2023-08-21T12:31:47;4.70;;;3.50;;
67715;SDS011;54508;43.238;25.306;2023-08-21T12:34:13;5.60;;;3.50;;
67715;SDS011;54508;43.238;25.306;2023-08-21T12:36:38;5.15;;;3.60;;
67715;SDS011;54508;43.238;25.306;2023-08-21T12:39:04;4.00;;;3.60;;
67715;SDS011;54508;43.238;25.306;2023-08-21T12:41:31;3.97;;;3.45;;
67715;SDS011;54508;43.238;25.306;2023-08-21T12:43:58;4.45;;;3.17;;
67715;SDS011;54508;43.238;25.306;2023-08-21T12:46:24;4.18;;;3.20;;
67715;SDS011;54508;43.238;25.306;2023-08-21T12:48:51;3.50;;;3.20;;
67715;SDS011;54508;43.238;25.306;2023-08-21T12:51:17;2.90;;;2.67;;
67715;SDS011;54508;43.238;25.306;2023-08-21T12:53:43;5.80;;;2.88;;
67715;SDS011;54508;43.238;25.306;2023-08-21T12:56:08;2.77;;;2.40;;
67715;SDS011;54508;43.238;25.306;2023-08-21T12:58:34;2.30;;;2.10;;
67715;SDS011;54508;43.238;25.306;2023-08-21T13:00:59;3.27;;;2.77;;
67715;SDS011;54508;43.238;25.306;2023-08-21T13:03:24;2.95;;;2.65;;
67715;SDS011;54508;43.238;25.306;2023-08-21T13:05:50;2.33;;;2.13;;
67715;SDS011;54508;43.238;25.306;2023-08-21T13:08:15;2.67;;;2.40;;
67715;SDS011;54508;43.238;25.306;2023-08-21T13:10:41;3.87;;;2.30;;
67715;SDS011;54508;43.238;25.306;2023-08-21T13:13:07;3.50;;;2.50;;
67715;SDS011;54508;43.238;25.306;2023-08-21T13:15:32;2.70;;;2.40;;
67715;SDS011;54508;43.238;25.306;2023-08-21T13:17:58;4.07;;;2.75;;
67715;SDS011;54508;43.238;25.306;2023-08-21T13:20:23;3.30;;;2.83;;
67715;SDS011;54508;43.238;25.306;2023-08-21T13:22:49;6.00;;;2.80;;
67715;SDS011;54508;43.238;25.306;2023-08-21T13:25:20;3.80;;;2.67;;
67715;SDS011;54508;43.238;25.306;2023-08-21T13:27:47;5.07;;;3.17;;
67715;SDS011;54508;43.238;25.306;2023-08-21T13:30:13;3.43;;;2.40;;
67715;SDS011;54508;43.238;25.306;2023-08-21T13:32:39;3.20;;;2.90;;
67715;SDS011;54508;43.238;25.306;2023-08-21T13:35:05;4.93;;;2.93;;
67715;SDS011;54508;43.238;25.306;2023-08-21T13:37:33;3.88;;;2.70;;
67715;SDS011;54508;43.238;25.306;2023-08-21T13:39:58;3.37;;;2.40;;
67715;SDS011;54508;43.238;25.306;2023-08-21T13:42:25;2.20;;;1.95;;
67715;SDS011;54508;43.238;25.306;2023-08-21T13:44:55;2.58;;;2.20;;
67715;SDS011;54508;43.238;25.306;2023-08-21T13:47:21;2.40;;;2.00;;
67715;SDS011;54508;43.238;25.306;2023-08-21T13:49:47;3.10;;;2.30;;
67715;SDS011;54508;43.238;25.306;2023-08-21T13:52:12;2.40;;;2.20;;
67715;SDS011;54508;43.238;25.306;2023-08-21T13:54:38;3.53;;;2.47;;
67715;SDS011;54508;43.238;25.306;2023-08-21T13:57:03;2.20;;;2.00;;
67715;SDS011;54508;43.238;25.306;2023-08-21T13:59:29;3.40;;;2.00;;
67715;SDS011;54508;43.238;25.306;2023-08-21T14:01:54;2.30;;;2.10;;
67715;SDS011;54508;43.238;25.306;2023-08-21T14:04:20;5.35;;;2.33;;
67715;SDS011;54508;43.238;25.306;2023-08-21T14:06:45;2.77;;;2.47;;
67715;SDS011;54508;43.238;25.306;2023-08-21T14:09:11;4.85;;;2.40;;
67715;SDS011;54508;43.238;25.306;2023-08-21T14:11:38;4.03;;;2.80;;
67715;SDS011;54508;43.238;25.306;2023-08-21T14:14:03;3.08;;;2.35;;
67715;SDS011;54508;43.238;25.306;2023-08-21T14:16:29;3.13;;;2.77;;
67715;SDS011;54508;43.238;25.306;2023-08-21T14:18:54;3.00;;;2.70;;
67715;SDS011;54508;43.238;25.306;2023-08-21T14:21:20;5.60;;;2.35;;
67715;SDS011;54508;43.238;25.306;2023-08-21T14:23:45;6.57;;;2.10;;
67715;SDS011;54508;43.238;25.306;2023-08-21T14:26:11;4.67;;;2.60;;
67715;SDS011;54508;43.238;25.306;2023-08-21T14:28:36;2.60;;;2.27;;
67715;SDS011;54508;43.238;25.306;2023-08-21T14:31:01;5.43;;;3.05;;
67715;SDS011;54508;43.238;25.306;2023-08-21T14:33:27;4.23;;;2.63;;
67715;SDS011;54508;43.238;25.306;2023-08-21T14:35:53;4.80;;;2.77;;
67715;SDS011;54508;43.238;25.306;2023-08-21T14:38:18;4.07;;;3.20;;
67715;SDS011;54508;43.238;25.306;2023-08-21T14:40:43;4.97;;;3.45;;
67715;SDS011;54508;43.238;25.306;2023-08-21T14:43:09;5.60;;;3.40;;
67715;SDS011;54508;43.238;25.306;2023-08-21T14:45:35;5.38;;;3.65;;